Time;durP1;ratioP1;P1;durP2;ratioP2;P2;SDS_P1;SDS_P2;PMS_P1;PMS_P2;Temp;Humidity;BMP_temperature;BMP_pressure;BME280_temperature;BME280_humidity;BME280_pressure;Samples;Min_cycle;Max_cycle;Signal;HPM_P1;HPM_P2
2023/08/05 00:01:43;;;;;;;8.60;3.90;;;14.30;99.90;;;-144.05;91.20;56980.53;6161877;23;20016;-89
2023/08/05 00:04:09;;;;;;;6.93;3.63;;;14.30;99.90;;;-144.05;90.93;56963.53;6186916;23;20009;-89
2023/08/05 00:06:35;;;;;;;9.57;4.90;;;14.30;99.90;;;-144.05;91.04;56969.91;6160126;23;20036;-88
2023/08/05 00:09:01;;;;;;;7.72;5.00;;;14.20;99.90;;;-144.05;91.07;56963.53;6159678;23;20044;-86
2023/08/05 00:11:26;;;;;;;6.57;4.32;;;14.20;99.90;;;-144.05;90.85;56963.53;6159471;23;20012;-87
2023/08/05 00:13:52;;;;;;;4.90;4.05;;;14.10;99.90;;;-144.05;91.00;56957.16;6158959;23;20016;-87
2023/08/05 00:16:18;;;;;;;7.55;4.45;;;14.00;99.90;;;-144.05;91.08;56935.91;6158399;23;20021;-87
2023/08/05 00:18:44;;;;;;;5.57;3.67;;;14.00;99.90;;;-144.05;91.13;56965.66;6158940;23;20055;-88
2023/08/05 00:21:10;;;;;;;7.18;4.55;;;14.00;99.90;;;-144.05;91.28;56950.78;6160960;23;20060;-88
2023/08/05 00:23:36;;;;;;;4.95;4.20;;;13.90;99.90;;;-144.05;91.31;56963.53;6159254;23;20024;-89
2023/08/05 00:26:01;;;;;;;6.03;4.15;;;13.90;99.90;;;-144.05;91.24;56957.16;6158837;23;20016;-88
2023/08/05 00:28:27;;;;;;;4.78;3.47;;;13.90;99.90;;;-144.05;91.18;56952.91;6158370;23;20001;-86
2023/08/05 00:30:53;;;;;;;5.55;4.40;;;13.80;99.90;;;-144.05;91.20;56961.41;6184742;23;20427;-88
2023/08/05 00:33:19;;;;;;;6.00;3.88;;;13.80;99.90;;;-144.05;91.59;56952.91;6184907;23;20004;-88
2023/08/05 00:35:45;;;;;;;8.23;5.57;;;13.80;99.90;;;-144.05;91.50;56957.16;6158208;23;20020;-85
2023/08/05 00:38:10;;;;;;;8.45;5.47;;;13.80;99.90;;;-144.05;91.63;56952.91;6157713;23;20009;-89
2023/08/05 00:40:36;;;;;;;6.68;4.68;;;13.80;99.90;;;-144.05;91.40;56961.41;6157928;23;20009;-87
2023/08/05 00:43:02;;;;;;;7.93;4.85;;;13.80;99.90;;;-144.05;91.69;56950.78;6182568;23;20097;-86
2023/08/05 00:45:29;;;;;;;5.47;4.30;;;13.80;99.90;;;-144.05;91.32;56955.03;6158170;23;20020;-87
2023/08/05 00:47:55;;;;;;;7.90;4.00;;;13.80;99.90;;;-144.05;91.31;56959.28;6184471;23;20091;-85
2023/08/05 00:50:23;;;;;;;6.63;3.90;;;13.90;99.90;;;-144.05;91.41;56959.28;6157811;23;20347;-82
2023/08/05 00:52:50;;;;;;;8.13;4.28;;;13.90;99.90;;;-144.05;91.44;56997.50;6157586;23;20107;-86
2023/08/05 00:55:16;;;;;;;7.65;3.63;;;13.90;99.90;;;-144.05;91.54;56961.41;6157863;23;20009;-87
2023/08/05 00:57:43;;;;;;;7.60;4.72;;;14.00;99.90;;;-144.05;91.49;56969.91;6184552;23;20004;-87
2023/08/05 01:00:09;;;;;;;9.45;5.15;;;14.00;99.90;;;-144.05;91.52;56976.28;6157386;23;20071;-87
2023/08/05 01:02:35;;;;;;;8.48;5.68;;;14.10;99.90;;;-144.05;91.65;56965.66;6182657;23;20009;-87
2023/08/05 01:05:01;;;;;;;8.63;5.47;;;14.10;99.90;;;-144.05;91.63;56957.16;6157357;23;20146;-85
2023/08/05 01:07:27;;;;;;;6.78;4.60;;;14.20;99.90;;;-144.05;91.56;56980.53;6157287;23;20431;-87
2023/08/05 01:09:54;;;;;;;6.22;4.80;;;14.20;99.90;;;-144.05;91.43;56957.16;6184049;23;20005;-88
2023/08/05 01:12:20;;;;;;;6.68;5.22;;;14.20;99.90;;;-144.05;91.61;56946.53;6157701;23;20096;-86
2023/08/05 01:14:45;;;;;;;5.78;4.65;;;14.20;99.90;;;-144.05;91.35;56976.28;6157617;23;20343;-87
2023/08/05 01:17:11;;;;;;;8.77;5.75;;;14.20;99.90;;;-144.05;91.53;56952.91;6157581;23;20376;-86
2023/08/05 01:19:40;;;;;;;6.85;4.70;;;14.30;99.90;;;-144.05;91.75;56952.91;6157373;23;20405;-87
2023/08/05 01:22:30;;;;;;;6.75;4.70;;;14.20;99.90;;;-144.05;91.63;56959.28;6157733;23;20008;-86
2023/08/05 01:25:32;;;;;;;5.78;4.30;;;14.20;99.90;;;-144.05;91.61;56963.53;6157754;23;20064;-87
2023/08/05 01:28:02;;;;;;;5.60;4.57;;;14.20;99.90;;;-144.05;91.57;56942.28;6183604;23;20072;-84
2023/08/05 01:30:30;;;;;;;9.00;5.45;;;14.30;99.90;;;-144.05;91.81;56963.53;6183779;23;20005;-88
2023/08/05 01:33:01;;;;;;;8.68;5.25;;;14.30;99.90;;;-144.05;91.76;56950.78;6157347;23;20058;-85
2023/08/05 01:35:27;;;;;;;5.07;4.57;;;14.30;99.90;;;-144.05;91.79;56959.28;6157621;23;20044;-87
2023/08/05 01:37:53;;;;;;;8.10;5.05;;;14.30;99.90;;;-144.05;91.73;56965.66;6157551;23;20068;-87
2023/08/05 01:40:19;;;;;;;7.60;5.20;;;14.20;99.90;;;-144.05;91.47;56961.41;6183816;23;20013;-86
2023/08/05 01:42:45;;;;;;;6.72;4.68;;;14.20;99.90;;;-144.05;91.60;56961.41;6157180;23;20095;-86
2023/08/05 01:45:11;;;;;;;6.30;4.18;;;14.20;99.90;;;-144.05;91.57;56959.28;6183648;23;20407;-86
2023/08/05 01:47:37;;;;;;;7.30;5.22;;;14.10;99.90;;;-144.05;91.78;56948.66;6157647;23;20013;-87
2023/08/05 01:50:04;;;;;;;7.68;5.53;;;14.10;99.90;;;-144.05;91.60;56938.03;6159127;23;20019;-87
2023/08/05 01:52:30;;;;;;;6.97;4.38;;;14.10;99.90;;;-144.05;91.65;56963.53;6159618;23;20005;-90
2023/08/05 01:54:55;;;;;;;5.72;4.45;;;14.20;99.90;;;-144.05;91.58;56961.41;6160047;23;20347;-89
2023/08/05 01:57:21;;;;;;;5.35;4.03;;;14.20;99.90;;;-144.05;91.66;56967.78;6158017;23;20009;-89
2023/08/05 01:59:47;;;;;;;5.53;4.38;;;14.20;99.90;;;-144.05;92.16;56982.66;6161065;23;20013;-88
2023/08/05 02:02:13;;;;;;;9.43;5.78;;;14.30;99.90;;;-144.05;91.81;56950.78;6160655;23;20386;-89
2023/08/05 02:04:39;;;;;;;9.10;4.63;;;14.30;99.90;;;-144.05;91.66;56965.66;6186455;23;20052;-88
2023/08/05 02:07:05;;;;;;;6.63;4.80;;;14.30;99.90;;;-144.05;91.68;56955.03;6160147;23;20005;-88
2023/08/05 02:09:31;;;;;;;6.97;5.05;;;14.40;99.90;;;-144.05;91.67;56972.03;6186123;23;20001;-88
2023/08/05 02:11:57;;;;;;;6.93;4.47;;;14.50;99.90;;;-144.05;91.71;56957.16;6159658;23;20312;-89
2023/08/05 02:14:23;;;;;;;6.45;5.07;;;14.40;99.90;;;-144.05;91.59;56974.16;6159587;23;20008;-90
2023/08/05 02:16:49;;;;;;;11.13;5.22;;;14.50;99.90;;;-144.05;91.38;56952.91;6159073;23;20128;-89
2023/08/05 02:19:14;;;;;;;6.10;4.55;;;14.50;99.90;;;-144.05;91.43;56944.41;6159084;23;20009;-90
2023/08/05 02:21:40;;;;;;;7.35;4.55;;;14.50;99.90;;;-144.05;91.49;56946.53;6159101;23;20013;-87
2023/08/05 02:24:09;;;;;;;10.02;4.95;;;14.50;99.90;;;-144.05;91.48;56963.53;6159111;23;20009;-87
2023/08/05 02:26:38;;;;;;;10.63;5.32;;;14.50;99.90;;;-144.05;91.48;56955.03;6159206;23;20107;-87
2023/08/05 02:29:04;;;;;;;7.65;5.75;;;14.40;99.90;;;-144.05;91.34;56955.03;6159248;23;20063;-86
2023/08/05 02:31:30;;;;;;;7.32;5.15;;;14.40;99.90;;;-144.05;91.33;56967.78;6159152;23;20442;-85
2023/08/05 02:33:56;;;;;;;13.45;6.22;;;14.40;99.90;;;-144.05;91.37;56952.91;6159562;23;20005;-87
2023/08/05 02:36:22;;;;;;;11.60;6.03;;;14.30;99.90;;;-144.05;91.21;56969.91;6159431;23;20434;-87
2023/08/05 02:38:48;;;;;;;9.00;6.47;;;14.30;99.90;;;-144.05;91.10;56961.41;6159623;23;20009;-85
2023/08/05 02:41:14;;;;;;;11.65;6.05;;;14.30;99.90;;;-144.05;91.10;56976.28;6159242;23;20005;-87
2023/08/05 02:43:40;;;;;;;7.20;5.45;;;14.20;99.90;;;-144.05;90.86;56940.16;6160075;23;20009;-87
2023/08/05 02:46:06;;;;;;;8.13;6.18;;;14.20;99.90;;;-144.05;91.00;56976.28;6185907;23;20423;-87
2023/08/05 02:48:31;;;;;;;7.03;5.40;;;14.20;99.90;;;-144.05;90.85;56963.53;6159000;23;20005;-87
2023/08/05 02:50:57;;;;;;;8.50;5.68;;;14.20;99.90;;;-144.05;90.85;56967.78;6185448;23;20036;-86
2023/08/05 02:53:23;;;;;;;6.60;4.63;;;14.20;99.90;;;-144.05;90.79;56963.53;6158765;23;20015;-86
2023/08/05 02:55:49;;;;;;;7.30;4.47;;;14.20;99.90;;;-144.05;90.91;56957.16;6189958;23;20013;-84
2023/08/05 02:58:16;;;;;;;5.47;4.03;;;14.20;99.90;;;-144.05;90.95;56955.03;6203910;23;20024;-90
2023/08/05 03:00:43;;;;;;;7.30;4.60;;;14.20;99.90;;;-144.05;90.94;56944.41;6165989;23;20012;-91
2023/08/05 03:03:11;;;;;;;7.28;4.88;;;14.20;99.90;;;-144.05;91.10;56969.91;6164388;23;20328;-89
2023/08/05 03:05:37;;;;;;;7.35;5.00;;;14.20;99.90;;;-144.05;90.98;56972.03;6163433;23;20355;-89
2023/08/05 03:08:03;;;;;;;7.45;5.53;;;14.20;99.90;;;-144.05;90.86;56959.28;6162316;23;20060;-89
2023/08/05 03:10:29;;;;;;;5.90;4.95;;;14.20;99.90;;;-144.05;90.87;56961.41;6187419;23;20659;-89
2023/08/05 03:12:55;;;;;;;7.38;4.47;;;14.20;99.90;;;-144.05;90.84;56967.78;6160918;23;20557;-89
2023/08/05 03:15:21;;;;;;;9.75;5.40;;;14.20;99.90;;;-144.05;90.97;56938.03;6160859;23;20028;-89
2023/08/05 03:17:47;;;;;;;6.22;4.97;;;14.20;99.90;;;-144.05;90.99;56963.53;6146140;23;20014;-83
2023/08/05 03:20:34;;;;;;;10.13;6.03;;;14.20;99.90;;;-144.05;90.88;56967.78;6126102;23;20006;-83
2023/08/05 03:23:00;;;;;;;9.15;5.53;;;14.20;99.90;;;-144.05;90.95;56972.03;6149865;23;20033;-82
2023/08/05 03:25:26;;;;;;;10.15;5.50;;;14.20;99.90;;;-144.05;90.95;56963.53;6128700;23;20014;-83
2023/08/05 03:27:52;;;;;;;5.80;4.75;;;14.20;99.90;;;-144.05;90.79;56963.53;6128023;23;20006;-84
2023/08/05 03:30:19;;;;;;;7.57;4.40;;;14.20;99.90;;;-144.05;90.82;56991.13;6126073;23;20029;-83
2023/08/05 03:32:48;;;;;;;4.97;4.43;;;14.20;99.90;;;-144.05;90.88;56974.16;6150630;23;20005;-85
2023/08/05 03:35:14;;;;;;;6.53;4.50;;;14.20;99.90;;;-144.05;90.92;56944.41;6127518;23;20061;-82
2023/08/05 03:37:40;;;;;;;9.20;5.72;;;14.20;99.90;;;-144.05;91.04;56948.66;6127322;23;20130;-83
2023/08/05 03:40:07;;;;;;;10.57;5.85;;;14.20;99.90;;;-144.05;91.12;56938.03;6149781;23;20041;-83
2023/08/05 03:42:33;;;;;;;12.80;6.78;;;14.20;99.90;;;-144.05;90.94;56984.78;6150101;23;20305;-84
2023/08/05 03:44:59;;;;;;;10.00;5.85;;;14.20;99.90;;;-144.05;91.02;56976.28;6127029;23;20017;-82
2023/08/05 03:47:26;;;;;;;11.32;7.50;;;14.20;99.90;;;-144.05;91.00;56965.66;6125205;23;20494;-85
2023/08/05 03:49:52;;;;;;;14.13;7.35;;;14.10;99.90;;;-144.05;91.17;56948.66;6125027;23;20452;-83
2023/08/05 03:52:17;;;;;;;10.90;6.35;;;14.10;99.90;;;-144.05;91.05;56950.78;6124911;23;20030;-83
2023/08/05 03:54:44;;;;;;;11.75;7.07;;;14.00;99.90;;;-144.05;90.86;56944.41;6127104;23;20081;-82
2023/08/05 03:57:09;;;;;;;11.93;6.60;;;14.00;99.90;;;-144.05;91.02;56957.16;6126692;23;20017;-83
2023/08/05 03:59:36;;;;;;;12.60;6.63;;;13.90;99.90;;;-144.05;91.05;56963.53;6127367;23;20021;-82
2023/08/05 04:02:03;;;;;;;12.55;8.02;;;13.90;99.90;;;-144.05;91.35;56950.78;6149914;23;20018;-83
2023/08/05 04:04:29;;;;;;;10.30;7.13;;;13.90;99.90;;;-144.05;91.13;56965.66;6150333;23;20013;-82
2023/08/05 04:06:55;;;;;;;10.13;5.90;;;13.90;99.90;;;-144.05;91.17;56959.28;6126826;23;20013;-83
2023/08/05 04:09:21;;;;;;;8.57;5.63;;;13.90;99.90;;;-144.05;90.90;56963.53;6127290;23;20017;-84
2023/08/05 04:11:49;;;;;;;9.07;5.65;;;13.80;99.90;;;-144.05;91.20;56976.28;6126189;23;20006;-85
2023/08/05 04:14:20;;;;;;;6.70;4.93;;;13.80;99.90;;;-144.05;91.19;56963.53;6149502;23;20017;-84
2023/08/05 04:16:51;;;;;;;7.38;5.15;;;13.80;99.90;;;-144.05;91.10;56967.78;6148998;23;20072;-84
2023/08/05 04:19:18;;;;;;;5.97;4.68;;;13.70;99.90;;;-144.05;91.07;56946.53;6149385;23;20443;-83
2023/08/05 04:21:47;;;;;;;7.63;5.35;;;13.70;99.90;;;-144.05;91.05;56967.78;6149284;23;20018;-85
2023/08/05 04:24:16;;;;;;;9.30;5.10;;;13.60;99.90;;;-144.05;91.15;56961.41;6149277;23;20041;-83
2023/08/05 04:26:42;;;;;;;7.38;5.07;;;13.60;99.90;;;-144.05;91.27;56972.03;6148790;23;20017;-84
2023/08/05 04:29:09;;;;;;;7.90;5.68;;;13.50;99.90;;;-144.05;91.03;56959.28;6149118;23;20352;-82
2023/08/05 04:31:38;;;;;;;11.82;6.65;;;13.50;99.90;;;-144.05;91.03;56989.00;6126117;23;20001;-81
2023/08/05 04:34:04;;;;;;;11.20;7.60;;;13.50;99.90;;;-144.05;91.23;56976.28;6126148;23;20006;-82
2023/08/05 04:36:30;;;;;;;13.88;7.22;;;13.50;99.90;;;-144.05;91.35;56959.28;6148578;23;20093;-84
2023/08/05 04:38:59;;;;;;;13.40;7.78;;;13.40;99.90;;;-144.05;91.50;56972.03;6126088;23;20420;-81
2023/08/05 04:41:25;;;;;;;13.52;8.63;;;13.50;99.90;;;-144.05;91.90;56965.66;6125821;23;20093;-82
2023/08/05 04:43:51;;;;;;;9.90;7.35;;;13.40;99.90;;;-144.05;91.37;56961.41;6149627;23;20041;-83
2023/08/05 04:46:16;;;;;;;12.45;7.97;;;13.40;99.90;;;-144.05;91.12;56959.28;6149116;23;20065;-81
2023/08/05 04:48:42;;;;;;;11.80;8.35;;;13.50;99.90;;;-144.05;91.07;56974.16;6125058;23;20029;-81
2023/08/05 04:51:08;;;;;;;11.07;6.60;;;13.50;99.90;;;-144.05;91.10;56961.41;6149426;23;20001;-82
2023/08/05 04:53:34;;;;;;;14.13;7.35;;;13.50;99.90;;;-144.05;91.17;56955.03;6125084;23;20010;-83
2023/08/05 04:56:00;;;;;;;13.05;8.38;;;13.50;99.90;;;-144.05;91.26;56969.91;6127074;23;20010;-81
2023/08/05 04:58:26;;;;;;;14.43;9.43;;;13.50;99.90;;;-144.05;91.25;56969.91;6125686;23;20010;-80
2023/08/05 05:00:56;;;;;;;19.27;10.68;;;13.50;99.90;;;-144.05;91.36;56974.16;6128464;23;20341;-82
2023/08/05 05:03:23;;;;;;;15.63;10.07;;;13.50;99.90;;;-144.05;91.50;56972.03;6128035;23;20080;-81
2023/08/05 05:05:50;;;;;;;11.55;8.30;;;13.70;99.90;;;-144.05;91.12;56969.91;6130461;23;20010;-79
2023/08/05 05:08:16;;;;;;;15.10;9.68;;;13.60;99.90;;;-144.05;91.01;56974.16;6166012;23;20006;-83
2023/08/05 05:10:46;;;;;;;15.27;9.88;;;13.70;99.90;;;-144.05;91.07;56938.03;6150798;23;20462;-85
2023/08/05 05:13:12;;;;;;;22.02;10.25;;;13.80;99.90;;;-144.05;91.25;56972.03;6125893;23;20014;-84
2023/08/05 05:15:38;;;;;;;17.60;11.63;;;13.90;99.90;;;-144.05;91.56;56974.16;6125096;23;20029;-84
2023/08/05 05:18:04;;;;;;;19.15;11.80;;;13.90;99.90;;;-144.05;91.70;56961.41;6124989;23;20042;-86
2023/08/05 05:20:30;;;;;;;15.52;10.30;;;14.00;99.90;;;-144.05;91.16;56972.03;6125352;23;20010;-86
2023/08/05 05:22:55;;;;;;;12.00;8.57;;;14.10;99.90;;;-144.05;91.28;56946.53;6124855;23;20010;-83
2023/08/05 05:25:22;;;;;;;13.43;9.90;;;14.30;99.90;;;-144.05;90.92;56980.53;6126437;23;20014;-84
2023/08/05 05:27:48;;;;;;;14.95;9.00;;;14.40;99.90;;;-144.05;90.09;56984.78;6124304;23;20391;-84
2023/08/05 05:30:14;;;;;;;20.52;11.13;;;14.50;99.90;;;-144.05;89.02;56967.78;6126035;23;20014;-84
2023/08/05 05:32:40;;;;;;;19.25;12.48;;;14.60;99.90;;;-144.05;88.66;56972.03;6126419;23;20006;-84
2023/08/05 05:35:07;;;;;;;22.85;10.60;;;14.70;99.90;;;-144.05;88.43;56955.03;6125969;23;20021;-83
2023/08/05 05:37:32;;;;;;;21.38;12.73;;;14.70;99.90;;;-144.05;87.05;56969.91;6124131;23;20014;-83
2023/08/05 05:39:58;;;;;;;21.55;11.00;;;14.70;99.90;;;-144.05;86.77;56957.16;6124626;23;20018;-85
2023/08/05 05:42:24;;;;;;;18.38;11.00;;;14.70;99.90;;;-144.05;86.69;56955.03;6125858;23;20005;-82
2023/08/05 05:44:52;;;;;;;15.82;10.70;;;14.70;99.90;;;-144.05;86.47;56967.78;6135736;23;20038;-82
2023/08/05 05:47:20;;;;;;;15.18;9.07;;;14.80;99.90;;;-144.05;86.10;56950.78;6138972;23;20002;-81
2023/08/05 05:49:46;;;;;;;12.15;8.90;;;14.80;99.90;;;-144.05;85.61;56978.41;6135024;23;20199;-82
2023/08/05 05:52:16;;;;;;;11.70;7.50;;;14.90;99.90;;;-144.05;85.42;56957.16;6136382;23;20029;-83
2023/08/05 05:54:44;;;;;;;14.93;8.63;;;15.10;99.90;;;-144.05;85.06;56976.28;6137848;23;20021;-84
2023/08/05 05:57:11;;;;;;;9.75;7.72;;;15.10;99.90;;;-144.05;84.87;56961.41;6128737;23;20014;-83
2023/08/05 05:59:38;;;;;;;10.60;7.30;;;15.20;99.90;;;-144.05;84.61;56965.66;6148924;23;20343;-82
2023/08/05 06:02:07;;;;;;;13.00;7.78;;;15.30;99.90;;;-144.05;84.66;56969.91;6148147;23;20030;-84
2023/08/05 06:04:33;;;;;;;10.50;8.27;;;15.40;99.90;;;-144.05;84.39;56972.03;6148521;23;20010;-85
2023/08/05 06:07:01;;;;;;;11.05;8.20;;;15.50;99.90;;;-144.05;84.16;56969.91;6124046;23;20010;-84
2023/08/05 06:09:27;;;;;;;13.77;8.68;;;15.60;99.90;;;-144.05;83.66;56969.91;6148214;23;20006;-83
2023/08/05 06:11:53;;;;;;;14.98;9.40;;;15.90;99.90;;;-144.05;81.76;56944.41;6125750;23;20089;-85
2023/08/05 06:14:21;;;;;;;12.13;9.30;;;16.10;99.90;;;-144.05;81.43;56967.78;6124598;23;20439;-83
2023/08/05 06:16:47;;;;;;;14.10;9.88;;;16.40;99.90;;;-144.05;79.86;56976.28;6137744;23;20033;-83
2023/08/05 06:19:12;;;;;;;13.07;9.05;;;16.60;99.90;;;-144.05;77.99;56995.38;6154121;23;20044;-81
2023/08/05 06:21:40;;;;;;;12.95;9.02;;;16.70;99.90;;;-144.05;78.03;56978.41;6155900;23;20052;-82
2023/08/05 06:24:05;;;;;;;13.13;9.23;;;16.70;99.90;;;-144.05;77.68;56955.03;6154265;23;20013;-82
2023/08/05 06:26:31;;;;;;;15.73;10.07;;;16.80;99.90;;;-144.05;76.86;56976.28;6156459;23;20009;-85
2023/08/05 06:28:57;;;;;;;13.32;9.82;;;16.90;99.90;;;-144.05;77.27;56967.78;6156587;23;20009;-83
2023/08/05 06:31:23;;;;;;;13.63;9.65;;;17.10;99.90;;;-144.05;77.06;56963.53;6157111;23;20099;-82
2023/08/05 06:33:49;;;;;;;13.38;9.57;;;17.50;99.90;;;-144.05;75.39;56965.66;6157974;23;20006;-81
2023/08/05 06:36:15;;;;;;;14.90;9.20;;;17.70;99.90;;;-144.05;74.32;56967.78;6158080;23;20001;-83
2023/08/05 06:38:40;;;;;;;17.00;10.57;;;18.00;99.90;;;-144.05;71.31;56995.38;6155340;23;20009;-84
2023/08/05 06:41:06;;;;;;;14.13;9.40;;;18.30;99.90;;;-144.05;70.61;56982.66;6155778;23;20009;-82
2023/08/05 06:43:32;;;;;;;13.15;9.43;;;18.40;99.90;;;-144.05;70.27;56984.78;6155746;23;20005;-82
2023/08/05 06:45:58;;;;;;;15.23;10.27;;;18.30;99.90;;;-144.05;70.46;56989.00;6130079;23;20061;-81
2023/08/05 06:48:24;;;;;;;11.00;7.65;;;18.10;99.90;;;-144.05;72.19;56974.16;6132402;23;20143;-83
2023/08/05 06:50:50;;;;;;;11.30;8.45;;;17.90;99.90;;;-144.05;72.87;56965.66;6158727;23;20005;-83
2023/08/05 06:53:16;;;;;;;11.82;8.00;;;17.80;99.90;;;-144.05;74.28;56986.91;6157945;23;20448;-83
2023/08/05 06:55:42;;;;;;;10.38;7.10;;;17.70;99.90;;;-144.05;74.35;56984.78;6157878;23;20012;-84
2023/08/05 06:58:08;;;;;;;12.75;8.15;;;17.60;99.90;;;-144.05;74.29;56972.03;6157484;23;20005;-82
2023/08/05 07:00:34;;;;;;;17.05;9.20;;;17.50;99.90;;;-144.05;73.07;56984.78;6131655;23;20014;-83
2023/08/05 07:03:01;;;;;;;13.13;9.07;;;17.30;99.90;;;-144.05;74.19;56961.41;6158409;23;20355;-82
2023/08/05 07:05:29;;;;;;;10.57;7.63;;;17.20;99.90;;;-144.05;74.78;56972.03;6156032;23;20491;-83
2023/08/05 07:07:55;;;;;;;11.25;7.78;;;17.20;99.90;;;-144.05;75.32;56974.16;6155891;23;20009;-84
2023/08/05 07:10:20;;;;;;;12.23;7.70;;;17.50;99.90;;;-144.05;73.89;56963.53;6157711;23;20006;-85
2023/08/05 07:12:46;;;;;;;13.30;7.63;;;17.70;99.90;;;-144.05;72.39;56963.53;6156015;23;20001;-83
2023/08/05 07:15:12;;;;;;;9.82;6.32;;;18.10;99.90;;;-144.05;70.42;56989.00;6158209;23;20009;-83
2023/08/05 07:17:39;;;;;;;9.50;5.75;;;18.30;99.90;;;-144.05;70.12;57003.88;6151192;23;20017;-83
2023/08/05 07:20:07;;;;;;;8.68;6.50;;;18.70;99.90;;;-144.05;67.65;56995.38;6128142;23;20435;-83
2023/08/05 07:22:32;;;;;;;10.10;5.90;;;19.30;99.90;;;-144.05;65.17;57010.25;6128607;23;20024;-82
2023/08/05 07:24:58;;;;;;;6.25;5.03;;;19.90;99.90;;;-144.05;62.97;57027.25;6128512;23;20010;-84
2023/08/05 07:27:24;;;;;;;10.15;5.35;;;20.20;99.90;;;-144.05;62.24;57020.88;6127010;23;20010;-82
2023/08/05 07:29:50;;;;;;;8.45;5.10;;;20.20;99.90;;;-144.05;60.72;57018.75;6128692;23;20006;-83
2023/08/05 07:32:16;;;;;;;12.15;5.15;;;20.10;99.90;;;-144.05;61.89;57018.75;6130701;23;20068;-83
2023/08/05 07:34:42;;;;;;;8.45;5.20;;;19.90;99.90;;;-144.05;63.09;57003.88;6132689;23;20014;-83
2023/08/05 07:37:08;;;;;;;9.52;4.35;;;19.60;99.90;;;-144.05;64.29;56989.00;6129105;23;20013;-81
2023/08/05 07:39:34;;;;;;;12.30;4.43;;;19.30;99.90;;;-144.05;63.86;57010.25;6127504;23;20006;-83
2023/08/05 07:42:03;;;;;;;6.18;4.07;;;19.50;99.90;;;-144.05;63.01;56993.25;6150477;23;20017;-82
2023/08/05 07:44:33;;;;;;;7.20;4.25;;;19.60;99.90;;;-144.05;62.55;56989.00;6149327;23;20006;-82
2023/08/05 07:46:59;;;;;;;6.35;3.60;;;19.60;99.90;;;-144.05;63.21;57008.13;6125336;23;20015;-81
2023/08/05 07:49:26;;;;;;;6.43;3.92;;;19.90;99.90;;;-144.05;60.25;56999.63;6124118;23;20016;-82
2023/08/05 07:51:53;;;;;;;6.60;3.92;;;20.40;99.90;;;-144.05;59.27;57010.25;6149043;23;20061;-82
2023/08/05 07:54:21;;;;;;;6.75;3.90;;;20.60;99.90;;;-144.05;58.63;57006.00;6125746;23;20032;-82
2023/08/05 07:56:48;;;;;;;7.88;3.88;;;20.80;99.90;;;-144.05;58.16;57018.75;6125370;23;20070;-83
2023/08/05 07:59:17;;;;;;;7.63;3.60;;;21.00;99.90;;;-144.05;58.01;57010.25;6124412;23;20012;-82
2023/08/05 08:01:45;;;;;;;11.07;3.80;;;21.30;99.90;;;-144.05;56.68;57014.50;6128182;23;20010;-82
2023/08/05 08:04:13;;;;;;;5.80;3.20;;;21.50;99.90;;;-144.05;55.34;57035.75;6127843;23;20017;-83
2023/08/05 08:06:39;;;;;;;6.03;3.53;;;21.30;99.90;;;-144.05;56.76;57040.00;6128608;23;20083;-84
2023/08/05 08:09:05;;;;;;;7.78;3.22;;;21.20;99.90;;;-144.05;57.54;57035.75;6128303;23;20006;-82
2023/08/05 08:11:32;;;;;;;7.30;3.20;;;20.80;99.90;;;-144.05;59.75;56993.25;6129200;23;20089;-84
2023/08/05 08:13:57;;;;;;;4.30;3.17;;;20.00;99.90;;;-144.05;61.11;57014.50;6128501;23;20002;-84
2023/08/05 08:16:23;;;;;;;5.55;3.40;;;19.60;99.90;;;-144.05;62.29;57003.88;6136363;23;20010;-82
2023/08/05 08:18:49;;;;;;;5.75;3.38;;;19.30;99.90;;;-144.05;63.25;56989.00;6131446;23;20351;-83
2023/08/05 08:21:15;;;;;;;7.93;3.80;;;19.00;99.90;;;-144.05;66.42;56984.78;6156785;23;20001;-83
2023/08/05 08:23:41;;;;;;;6.93;4.00;;;19.20;99.90;;;-144.05;63.58;56999.63;6157222;23;20009;-83
2023/08/05 08:26:07;;;;;;;9.85;4.30;;;19.50;99.90;;;-144.05;63.31;56982.66;6156998;23;20012;-83
2023/08/05 08:28:32;;;;;;;8.85;4.22;;;19.20;99.90;;;-144.05;64.64;56986.91;6157277;23;20005;-83
2023/08/05 08:30:58;;;;;;;7.00;4.30;;;18.90;99.90;;;-144.05;65.35;56980.53;6162630;23;20021;-80
2023/08/05 08:33:26;;;;;;;7.97;3.85;;;19.00;99.90;;;-144.05;63.53;57006.00;6158529;23;20076;-81
2023/08/05 08:35:53;;;;;;;16.25;5.03;;;19.60;99.90;;;-144.05;60.13;57016.63;6156088;23;20017;-82
2023/08/05 08:38:20;;;;;;;7.75;3.80;;;20.20;99.90;;;-144.05;57.98;57016.63;6155887;23;20324;-81
2023/08/05 08:40:52;;;;;;;6.07;3.40;;;20.90;99.90;;;-144.05;55.50;57052.75;6157183;23;20005;-82
2023/08/05 08:43:20;;;;;;;5.75;3.58;;;21.40;99.90;;;-144.05;52.68;57037.88;6156140;23;20105;-82
2023/08/05 08:45:53;;;;;;;7.43;4.32;;;21.70;99.90;;;-144.05;53.78;57067.59;6157597;23;20092;-82
2023/08/05 08:48:20;;;;;;;9.88;4.25;;;21.60;99.90;;;-144.05;56.42;57016.63;6156799;23;20005;-80
2023/08/05 08:50:48;;;;;;;8.20;4.30;;;21.10;99.90;;;-144.05;56.87;57014.50;6157512;23;20006;-83
2023/08/05 08:53:15;;;;;;;7.70;4.35;;;20.70;99.90;;;-144.05;57.25;57027.25;6157080;23;20001;-82
2023/08/05 08:55:43;;;;;;;6.80;3.40;;;20.40;99.90;;;-144.05;57.85;57016.63;6157358;23;20379;-82
2023/08/05 08:58:11;;;;;;;6.47;3.85;;;20.00;99.90;;;-144.05;58.00;57001.75;6156799;23;20005;-83
2023/08/05 09:00:37;;;;;;;7.70;3.60;;;19.60;99.90;;;-144.05;59.19;56997.50;6155252;23;20013;-81
2023/08/05 09:03:06;;;;;;;6.97;4.18;;;19.30;99.90;;;-144.05;60.47;56999.63;6155639;23;20324;-80
2023/08/05 09:05:52;;;;;;;9.50;4.13;;;19.20;99.90;;;-144.05;61.74;57012.38;6130639;23;20335;-82
2023/08/05 09:08:20;;;;;;;6.75;4.15;;;19.00;99.90;;;-144.05;61.49;56986.91;6157076;23;20006;-82
2023/08/05 09:10:46;;;;;;;7.25;4.18;;;18.80;99.90;;;-144.05;61.72;56999.63;6157324;23;20466;-81
2023/08/05 09:13:16;;;;;;;9.75;5.10;;;18.70;99.90;;;-144.05;62.67;56980.53;6160615;23;20005;-81
2023/08/05 09:15:42;;;;;;;6.80;4.40;;;18.60;99.90;;;-144.05;60.49;56986.91;6157977;23;20014;-83
2023/08/05 09:18:08;;;;;;;6.07;3.85;;;19.40;99.90;;;-144.05;56.79;56993.25;6148480;23;20105;-82
2023/08/05 09:20:38;;;;;;;4.05;2.88;;;20.30;99.90;;;-144.05;52.55;57012.38;6157179;23;20388;-82
2023/08/05 09:23:10;;;;;;;9.68;4.32;;;21.00;99.90;;;-144.05;51.85;57025.13;6156951;23;20423;-82
2023/08/05 09:25:48;;;;;;;8.60;5.75;;;21.50;99.90;;;-144.05;52.40;57003.88;6158222;23;20010;-81
2023/08/05 09:28:31;;;;;;;6.13;4.40;;;21.50;99.90;;;-144.05;50.32;57056.97;6156556;23;20013;-81
2023/08/05 09:31:16;;;;;;;6.53;4.20;;;22.00;99.90;;;-144.05;48.42;57048.50;6156873;23;20137;-82
2023/08/05 09:33:43;;;;;;;7.75;4.30;;;22.00;99.90;;;-144.05;50.40;57010.25;6157199;23;20006;-82
2023/08/05 09:36:17;;;;;;;8.52;4.60;;;21.30;99.90;;;-144.05;51.35;57027.25;6159204;23;20013;-84
2023/08/05 09:38:47;;;;;;;5.97;4.72;;;21.10;99.90;;;-144.05;52.18;57054.88;6156450;23;20104;-81
2023/08/05 09:41:12;;;;;;;6.45;4.85;;;20.90;99.90;;;-144.05;52.24;57018.75;6155806;23;20017;-80
2023/08/05 09:43:43;;;;;;;7.93;6.05;;;21.20;99.90;;;-144.05;50.19;57061.22;6157506;23;20010;-81
2023/08/05 09:46:12;;;;;;;6.57;5.07;;;21.70;99.90;;;-144.05;49.02;57035.75;6156214;23;20092;-84
2023/08/05 09:48:44;;;;;;;7.60;5.32;;;21.90;99.90;;;-144.05;48.04;57044.25;6158198;23;20375;-82
2023/08/05 09:51:18;;;;;;;10.15;6.00;;;22.00;99.90;;;-144.05;48.38;57027.25;6155576;23;20347;-83
2023/08/05 09:53:54;;;;;;;9.23;5.60;;;22.30;99.90;;;-144.05;47.17;57050.63;6157016;23;20371;-85
2023/08/05 09:56:20;;;;;;;;;;;22.60;99.90;;;-144.05;47.31;57082.47;6155984;23;20451;-81
2023/08/05 09:58:48;;;;;;;;;;;22.90;99.90;;;-144.05;48.30;57061.22;6181309;23;19904;-83
2023/08/05 10:01:17;;;;;;;9.98;6.10;;;22.70;99.90;;;-144.05;47.34;57080.34;6156214;23;19908;-84
2023/08/05 10:03:45;;;;;;;9.07;6.38;;;23.00;99.90;;;-144.05;48.27;57059.09;6158263;23;20347;-80